Time;durP1;ratioP1;P1;durP2;ratioP2;P2;SDS_P1;SDS_P2;PMS_P1;PMS_P2;Temp;Humidity;BMP_temperature;BMP_pressure;BME280_temperature;BME280_humidity;BME280_pressure;Samples;Min_cycle;Max_cycle;Signal;HPM_P1;HPM_P2
2023/06/03 00:00:20;;;;;;;;;11.00;9.67;;;;;19.78;54.88;101484.63;5062070;27;59872;-75
2023/06/03 00:02:47;;;;;;;;;8.33;7.67;;;;;19.77;55.22;101482.00;5067311;28;46716;-75
2023/06/03 00:05:12;;;;;;;;;9.33;9.33;;;;;19.74;55.32;101482.91;5059573;28;45476;-74
2023/06/03 00:07:38;;;;;;;;;13.33;9.33;;;;;19.72;55.22;101486.53;5070406;27;45445;-74
2023/06/03 00:10:04;;;;;;;;;12.67;9.33;;;;;19.69;55.99;101484.78;5058526;28;45492;-75
2023/06/03 00:12:30;;;;;;;;;8.33;8.00;;;;;19.67;55.88;101477.69;5069687;28;46375;-76
2023/06/03 00:14:55;;;;;;;;;8.00;8.00;;;;;19.64;57.02;101481.28;5067243;28;45473;-74
2023/06/03 00:17:21;;;;;;;;;14.00;10.67;;;;;19.62;56.49;101485.78;5075414;28;45413;-75
2023/06/03 00:19:47;;;;;;;;;11.00;11.00;;;;;19.60;56.94;101487.59;5064171;28;45470;-74
2023/06/03 00:22:12;;;;;;;;;11.00;9.00;;;;;19.54;57.78;101477.81;5067314;28;47316;-74
2023/06/03 00:24:38;;;;;;;;;11.00;10.33;;;;;19.52;58.84;101482.34;5061728;27;50850;-75
2023/06/03 00:27:03;;;;;;;;;10.67;10.00;;;;;19.48;58.03;101475.25;5063591;28;47294;-75
2023/06/03 00:29:28;;;;;;;;;9.00;9.00;;;;;19.45;58.89;101474.44;5072516;28;45552;-74
2023/06/03 00:31:54;;;;;;;;;13.00;10.67;;;;;19.44;59.23;101472.63;5065083;28;59081;-75
2023/06/03 00:34:19;;;;;;;;;14.33;8.00;;;;;19.42;58.92;101478.03;5059367;28;50838;-75
2023/06/03 00:36:45;;;;;;;;;9.67;8.67;;;;;19.43;59.79;101476.22;5059415;28;61253;-75
2023/06/03 00:39:10;;;;;;;;;12.00;11.67;;;;;19.39;59.66;101470.06;5072750;28;45520;-76
2023/06/03 00:41:36;;;;;;;;;16.00;11.00;;;;;19.36;59.86;101476.31;5064806;28;46400;-74
2023/06/03 00:44:02;;;;;;;;;13.33;11.00;;;;;19.34;59.51;101464.75;5069657;27;46106;-74
2023/06/03 00:46:28;;;;;;;;;10.00;10.00;;;;;19.34;60.17;101463.88;5072231;28;45587;-75
2023/06/03 00:48:53;;;;;;;;;13.67;11.00;;;;;19.34;60.67;101469.25;5071015;28;47966;-74
2023/06/03 00:51:19;;;;;;;;;16.67;11.00;;;;;19.30;60.51;101465.72;5070420;27;51398;-74
2023/06/03 00:53:45;;;;;;;;;15.00;11.33;;;;;19.29;60.67;101460.38;5065297;28;45466;-75
2023/06/03 00:56:12;;;;;;;;;12.33;11.33;;;;;19.26;60.61;101461.31;5067007;28;45537;-75
2023/06/03 00:58:37;;;;;;;;;16.00;11.67;;;;;19.25;61.63;101462.22;5069824;27;45426;-75
2023/06/03 01:01:03;;;;;;;;;12.67;11.00;;;;;19.22;60.90;101456.00;5061298;27;46296;-75
2023/06/03 01:03:28;;;;;;;;;16.33;12.00;;;;;19.21;61.88;101460.47;5056231;28;45430;-74
2023/06/03 01:06:07;;;;;;;;;15.00;11.00;;;;;19.19;61.89;101466.78;5064049;28;46414;-75
2023/06/03 01:09:03;;;;;;;;;12.67;9.67;;;;;19.15;62.09;101449.88;5068092;28;45679;-75
2023/06/03 01:12:01;;;;;;;;;11.00;11.00;;;;;19.13;62.40;101456.16;5054937;28;46434;-74
2023/06/03 01:15:07;;;;;;;;;16.00;10.67;;;;;19.10;62.28;101451.72;5069368;28;45370;-74
2023/06/03 01:17:39;;;;;;;;;13.67;13.00;;;;;19.06;62.75;101452.66;5066526;28;45426;-75
2023/06/03 01:20:09;;;;;;;;;14.00;12.33;;;;;19.05;63.31;101446.44;5065581;28;45396;-75
2023/06/03 01:22:40;;;;;;;;;12.67;12.33;;;;;19.03;63.21;101444.69;5064563;28;46255;-75
2023/06/03 01:25:08;;;;;;;;;15.00;12.75;;;;;19.01;63.13;101441.13;5061175;28;45519;-76
2023/06/03 01:27:34;;;;;;;;;18.33;10.67;;;;;18.98;63.67;101441.19;5053211;28;45497;-74
2023/06/03 01:29:59;;;;;;;;;14.33;11.67;;;;;18.99;64.09;101448.31;5064577;28;45508;-76
2023/06/03 01:32:25;;;;;;;;;18.50;13.75;;;;;18.97;63.43;101443.00;5052470;28;46664;-74
2023/06/03 01:34:51;;;;;;;;;13.67;12.00;;;;;18.95;63.97;101447.47;5056170;28;50983;-74
2023/06/03 01:37:16;;;;;;;;;15.00;13.00;;;;;18.96;64.13;101448.34;5070870;27;62861;-75
2023/06/03 01:39:42;;;;;;;;;14.33;11.00;;;;;18.95;64.33;101451.94;5067363;28;45458;-75
2023/06/03 01:42:09;;;;;;;;;16.33;13.33;;;;;18.94;64.65;101436.78;5053616;28;62421;-74
2023/06/03 01:44:35;;;;;;;;;15.00;12.00;;;;;18.91;64.59;101452.88;5072269;28;45503;-74
2023/06/03 01:47:00;;;;;;;;;13.67;13.33;;;;;18.91;64.43;101448.44;5068742;28;55624;-75
2023/06/03 01:49:26;;;;;;;;;15.67;14.00;;;;;18.89;64.93;101452.03;5055832;28;45498;-75
2023/06/03 01:51:51;;;;;;;;;14.67;13.00;;;;;18.89;64.92;101450.22;5067038;28;46485;-74
2023/06/03 01:54:18;;;;;;;;;13.33;13.33;;;;;18.89;64.74;101449.34;5065331;28;45319;-75
2023/06/03 01:56:43;;;;;;;;;14.67;13.00;;;;;18.87;64.92;101449.38;5069250;27;45826;-75
2023/06/03 01:59:09;;;;;;;;;15.67;12.00;;;;;18.84;65.24;101450.28;5066434;28;45574;-74
2023/06/03 02:01:36;;;;;;;;;17.00;15.25;;;;;18.82;65.71;101443.19;5067968;28;47404;-75
2023/06/03 02:04:02;;;;;;;;;15.25;12.25;;;;;18.81;65.44;101447.66;5064858;28;45467;-74
2023/06/03 02:06:27;;;;;;;;;14.33;11.67;;;;;18.77;65.64;101434.34;5063528;27;45535;-74
2023/06/03 02:08:53;;;;;;;;;12.33;11.00;;;;;18.76;65.78;101436.16;5071628;27;45533;-74
2023/06/03 02:11:18;;;;;;;;;13.67;12.33;;;;;18.76;66.30;101435.25;5070394;28;53921;-74
2023/06/03 02:13:43;;;;;;;;;14.00;13.00;;;;;18.73;65.66;101441.50;5072147;28;57651;-74
2023/06/03 02:16:10;;;;;;;;;13.00;13.00;;;;;18.73;66.42;101441.50;5066951;28;45564;-75
2023/06/03 02:18:37;;;;;;;;;15.00;12.00;;;;;18.71;66.28;101443.34;5062003;28;45566;-75
2023/06/03 02:21:02;;;;;;;;;18.67;16.00;;;;;18.70;66.43;101438.91;5063119;28;47757;-74
2023/06/03 02:23:28;;;;;;;;;13.75;12.00;;;;;18.68;66.56;101448.72;5070841;28;45424;-75
2023/06/03 02:25:53;;;;;;;;;19.50;13.50;;;;;18.64;67.33;101438.03;5069684;28;45912;-74
2023/06/03 02:28:22;;;;;;;;;14.00;14.00;;;;;18.62;67.31;101443.41;5070069;28;49434;-74
2023/06/03 02:30:48;;;;;;;;;17.25;12.50;;;;;18.59;67.18;101438.13;5072619;28;46629;-75
2023/06/03 02:33:14;;;;;;;;;12.67;11.00;;;;;18.57;67.75;101431.88;5073184;28;45482;-75
2023/06/03 02:35:39;;;;;;;;;14.50;12.75;;;;;18.57;68.15;101437.22;5064584;28;45678;-74
2023/06/03 02:38:04;;;;;;;;;19.25;14.00;;;;;18.54;68.47;101431.94;5068679;28;59513;-74
2023/06/03 02:40:30;;;;;;;;;14.00;14.00;;;;;18.52;68.18;101436.41;5062826;28;62517;-74
2023/06/03 02:42:55;;;;;;;;;15.50;12.50;;;;;18.46;68.72;101429.34;5066151;28;65799;-74
2023/06/03 02:45:20;;;;;;;;;15.75;13.00;;;;;18.44;68.61;101439.19;5060948;28;49597;-75
2023/06/03 02:47:46;;;;;;;;;11.50;11.25;;;;;18.40;69.31;101437.44;5057197;28;45430;-74
2023/06/03 02:50:11;;;;;;;;;17.00;14.00;;;;;18.37;69.01;101441.94;5069334;28;46168;-74
2023/06/03 02:52:36;;;;;;;;;15.00;13.50;;;;;18.33;69.15;101435.75;5056746;28;45447;-74
2023/06/03 02:55:03;;;;;;;;;17.50;13.50;;;;;18.29;69.44;101442.91;5071564;28;45470;-74
2023/06/03 02:57:28;;;;;;;;;16.33;14.00;;;;;18.26;69.52;101440.25;5072342;27;45449;-74
2023/06/03 02:59:55;;;;;;;;;16.50;13.75;;;;;18.25;69.92;101432.25;5068862;28;47228;-75
2023/06/03 03:02:20;;;;;;;;;12.75;12.75;;;;;18.23;70.39;101437.63;5069137;28;45491;-74
2023/06/03 03:04:46;;;;;;;;;14.50;14.00;;;;;18.18;70.37;101431.44;5066863;28;47463;-75
2023/06/03 03:07:11;;;;;;;;;17.75;9.50;;;;;18.17;70.38;101423.47;5064694;28;46434;-75
2023/06/03 03:09:36;;;;;;;;;17.50;14.50;;;;;18.13;70.84;101433.28;5064920;28;49062;-75
2023/06/03 03:12:02;;;;;;;;;20.50;14.25;;;;;18.12;71.26;101434.19;5060794;28;45427;-74
2023/06/03 03:14:27;;;;;;;;;15.00;15.00;;;;;18.11;71.21;101431.50;5069928;28;45633;-74
2023/06/03 03:16:53;;;;;;;;;13.00;13.00;;;;;18.09;71.40;101431.53;5064070;28;51711;-74
2023/06/03 03:19:18;;;;;;;;;16.25;13.00;;;;;18.05;71.29;101427.13;5052552;28;47224;-75
2023/06/03 03:21:44;;;;;;;;;13.75;13.00;;;;;18.08;71.76;101434.25;5051638;28;58205;-75
2023/06/03 03:24:10;;;;;;;;;12.00;10.00;;;;;18.04;71.70;101417.34;5073466;27;45481;-74
2023/06/03 03:26:36;;;;;;;;;15.75;12.25;;;;;18.02;71.97;101421.81;5066098;27;45468;-74
2023/06/03 03:29:02;;;;;;;;;13.00;11.00;;;;;18.01;72.00;101420.06;5069301;27;46604;-74
2023/06/03 03:31:28;;;;;;;;;14.25;12.25;;;;;17.99;72.39;101419.16;5066033;27;45540;-74
2023/06/03 03:33:53;;;;;;;;;14.75;13.50;;;;;17.98;72.51;101423.63;5077891;27;45463;-75
2023/06/03 03:36:22;;;;;;;;;16.00;11.00;;;;;17.98;72.30;101431.66;5057295;28;45385;-75
2023/06/03 03:38:53;;;;;;;;;12.00;12.00;;;;;17.95;72.81;101426.34;5078011;27;47408;-74
2023/06/03 03:41:19;;;;;;;;;17.25;12.25;;;;;17.94;72.60;101432.56;5065188;27;45488;-74
2023/06/03 03:43:44;;;;;;;;;14.75;12.50;;;;;17.93;72.86;101429.94;5078199;27;45593;-75
2023/06/03 03:46:09;;;;;;;;;18.00;12.75;;;;;17.88;73.10;101429.97;5076602;27;53937;-74
2023/06/03 03:48:35;;;;;;;;;18.25;15.50;;;;;17.88;73.58;101429.97;5067305;27;46507;-75
2023/06/03 03:51:00;;;;;;;;;15.75;13.75;;;;;17.87;73.47;101440.69;5063593;27;67587;-74
2023/06/03 03:53:31;;;;;;;;;12.00;10.50;;;;;17.87;73.48;101440.69;5073435;27;45434;-74
2023/06/03 03:55:57;;;;;;;;;12.50;10.75;;;;;17.84;73.50;101440.69;5061227;27;46029;-75
2023/06/03 03:58:37;;;;;;;;;13.75;13.75;;;;;17.82;74.52;101443.38;5070803;27;46603;-75
2023/06/03 04:01:18;;;;;;;;;9.50;9.25;;;;;17.75;74.23;101439.91;5057731;28;45864;-75
2023/06/03 04:03:45;;;;;;;;;15.75;13.00;;;;;17.74;74.74;101438.13;5069193;28;45783;-75
2023/06/03 04:06:12;;;;;;;;;15.75;13.50;;;;;17.71;74.76;101440.78;5070011;28;45494;-75
2023/06/03 04:08:39;;;;;;;;;14.25;14.25;;;;;17.70;74.79;101440.81;5066990;28;46261;-74
2023/06/03 04:11:06;;;;;;;;;16.25;11.75;;;;;17.69;75.12;101447.03;5066699;28;45434;-76
2023/06/03 04:13:37;;;;;;;;;16.25;12.00;;;;;17.66;75.50;101442.59;5063215;28;45370;-74
2023/06/03 04:16:07;;;;;;;;;13.00;12.25;;;;;17.63;75.52;101437.31;5064062;28;45483;-75
2023/06/03 04:18:33;;;;;;;;;15.50;13.75;;;;;17.63;75.68;101439.06;5055170;28;47941;-76
2023/06/03 04:20:59;;;;;;;;;15.25;13.25;;;;;17.63;75.97;101439.06;5067089;28;45494;-74
2023/06/03 04:23:27;;;;;;;;;19.75;14.00;;;;;17.62;76.22;101427.50;5062489;28;45558;-74
2023/06/03 04:25:55;;;;;;;;;17.75;17.75;;;;;17.61;76.19;101432.84;5058952;27;45513;-75
2023/06/03 04:28:20;;;;;;;;;21.50;16.25;;;;;17.61;76.45;101435.53;5070560;28;46610;-75
2023/06/03 04:30:45;;;;;;;;;16.25;14.75;;;;;17.60;76.78;101437.31;5069920;28;45503;-75
2023/06/03 04:33:11;;;;;;;;;21.25;16.00;;;;;17.58;77.08;101435.53;5072299;28;48573;-75
2023/06/03 04:35:36;;;;;;;;;15.50;15.50;;;;;17.59;77.18;101438.22;5069258;28;53826;-75
2023/06/03 04:38:01;;;;;;;;;18.50;18.50;;;;;17.58;77.20;101444.47;5071068;28;59176;-74
2023/06/03 04:40:27;;;;;;;;;21.75;17.50;;;;;17.59;78.06;101443.56;5067684;28;45454;-74
2023/06/03 04:42:53;;;;;;;;;14.75;14.00;;;;;17.58;77.74;101441.78;5063839;28;58792;-75
2023/06/03 04:45:21;;;;;;;;;20.50;17.25;;;;;17.59;78.15;101456.03;5066294;28;45487;-74
2023/06/03 04:47:47;;;;;;;;;21.00;18.25;;;;;17.58;78.34;101454.22;5068894;27;46553;-75
2023/06/03 04:50:19;;;;;;;;;18.25;14.75;;;;;17.58;78.31;101457.81;5072741;28;45473;-75
2023/06/03 04:52:45;;;;;;;;;15.00;13.25;;;;;17.57;78.86;101453.34;5071634;27;45443;-74
2023/06/03 04:55:12;;;;;;;;;19.00;15.75;;;;;17.56;79.24;101459.59;5053608;28;45571;-74
2023/06/03 04:57:38;;;;;;;;;19.75;15.50;;;;;17.56;79.10;101464.94;5069001;27;46603;-74
2023/06/03 05:00:06;;;;;;;;;18.75;15.50;;;;;17.59;78.91;101464.03;5066052;28;45477;-76
2023/06/03 05:02:31;;;;;;;;;17.25;15.50;;;;;17.58;79.33;101463.16;5066877;28;45393;-74
2023/06/03 05:04:57;;;;;;;;;14.75;14.75;;;;;17.59;79.76;101467.59;5069483;28;45454;-74
2023/06/03 05:07:24;;;;;;;;;15.00;13.25;;;;;17.60;79.66;101472.03;5071883;28;68918;-74
2023/06/03 05:09:50;;;;;;;;;17.75;13.50;;;;;17.61;80.16;101478.25;5068805;28;45394;-76
2023/06/03 05:12:18;;;;;;;;;16.75;14.75;;;;;17.61;80.20;101471.13;5070044;28;45551;-74
2023/06/03 05:14:44;;;;;;;;;17.25;12.75;;;;;17.64;80.16;101479.13;5065944;28;45483;-74
2023/06/03 05:17:09;;;;;;;;;19.75;15.25;;;;;17.64;80.45;101480.91;5069870;28;47062;-75
2023/06/03 05:19:35;;;;;;;;;16.75;12.50;;;;;17.67;80.30;101479.09;5062095;27;46136;-74
2023/06/03 05:22:02;;;;;;;;;19.00;14.75;;;;;17.66;80.33;101476.44;5066142;27;46086;-76
2023/06/03 05:24:28;;;;;;;;;15.00;12.25;;;;;17.71;80.74;101477.28;5061565;27;45403;-75
2023/06/03 05:26:53;;;;;;;;;16.25;14.50;;;;;17.75;80.71;101481.75;5065075;27;46274;-74
2023/06/03 05:29:19;;;;;;;;;17.00;12.00;;;;;17.76;80.99;101472.81;5072814;27;45608;-74
2023/06/03 05:31:44;;;;;;;;;15.00;12.75;;;;;17.79;81.15;101476.38;5077660;27;45385;-75
2023/06/03 05:34:10;;;;;;;;;17.00;15.00;;;;;17.83;81.06;101479.88;5075056;27;48749;-76
2023/06/03 05:36:35;;;;;;;;;17.25;13.75;;;;;17.87;81.30;101478.06;5076462;27;46900;-77
2023/06/03 05:39:01;;;;;;;;;15.25;14.00;;;;;17.90;81.15;101473.59;5076397;27;45532;-77
2023/06/03 05:41:26;;;;;;;;;13.25;10.75;;;;;17.94;80.65;101472.66;5072464;27;45599;-77
2023/06/03 05:43:51;;;;;;;;;14.00;12.00;;;;;17.98;81.09;101470.84;5080268;27;45477;-79
2023/06/03 05:46:17;;;;;;;;;13.50;12.50;;;;;18.01;81.02;101468.16;5073319;27;46486;-77
2023/06/03 05:48:43;;;;;;;;;11.75;11.50;;;;;18.03;81.07;101466.34;5063872;27;53240;-79
2023/06/03 05:51:08;;;;;;;;;14.00;12.75;;;;;18.07;80.82;101476.13;5067076;27;45692;-78
2023/06/03 05:53:34;;;;;;;;;13.25;13.25;;;;;18.11;81.17;101479.63;5069782;28;45534;-77
2023/06/03 05:55:59;;;;;;;;;16.50;13.25;;;;;18.11;80.93;101472.53;5061782;28;47303;-77
2023/06/03 05:58:25;;;;;;;;;18.75;14.00;;;;;18.14;81.05;101469.78;5062955;27;60595;-77
2023/06/03 06:00:52;;;;;;;;;14.00;12.00;;;;;18.16;80.89;101480.47;5062319;28;45515;-79
2023/06/03 06:03:17;;;;;;;;;14.75;12.75;;;;;18.21;80.71;101482.19;5068684;28;45471;-80
2023/06/03 06:05:45;;;;;;;;;12.33;10.00;;;;;18.22;80.81;101477.75;5070258;27;65609;-77
2023/06/03 06:08:10;;;;;;;;;18.50;11.25;;;;;18.25;80.87;101486.59;5069457;28;45410;-77
2023/06/03 06:10:35;;;;;;;;;17.25;13.00;;;;;18.28;80.55;101481.25;5071879;27;59307;-79
2023/06/03 06:13:01;;;;;;;;;14.25;12.75;;;;;18.31;80.70;101481.19;5069455;27;45505;-80
2023/06/03 06:15:29;;;;;;;;;15.75;12.50;;;;;18.33;80.75;101486.56;5070906;28;67074;-77
2023/06/03 06:17:55;;;;;;;;;14.50;11.75;;;;;18.36;80.46;101482.94;5054002;28;45524;-77
2023/06/03 06:20:20;;;;;;;;;19.00;13.00;;;;;18.39;80.52;101482.94;5071766;28;46829;-80
2023/06/03 06:22:48;;;;;;;;;17.00;12.00;;;;;18.44;81.05;101494.47;5073244;27;50674;-78
2023/06/03 06:25:14;;;;;;;;;16.33;12.00;;;;;18.45;80.91;101486.41;5069193;28;46518;-78
2023/06/03 06:27:40;;;;;;;;;20.75;13.75;;;;;18.49;80.52;101490.81;5050869;28;45651;-76
2023/06/03 06:30:06;;;;;;;;;13.00;11.00;;;;;18.52;80.46;101489.88;5054983;28;45451;-80
2023/06/03 06:32:41;;;;;;;;;13.75;12.00;;;;;18.55;80.60;101505.91;5062929;27;45365;-77
2023/06/03 06:35:07;;;;;;;;;12.00;12.00;;;;;18.57;80.74;101494.28;5052096;28;45576;-77
2023/06/03 06:37:33;;;;;;;;;14.50;11.25;;;;;18.62;80.11;101496.03;5054729;28;45971;-79
2023/06/03 06:39:59;;;;;;;;;15.75;13.25;;;;;18.64;80.44;101500.44;5061247;28;45514;-78
2023/06/03 06:42:32;;;;;;;;;15.00;11.75;;;;;18.69;80.13;101490.59;5058868;28;45713;-78
2023/06/03 06:45:01;;;;;;;;;13.00;9.75;;;;;18.70;80.20;101489.72;5049808;28;48778;-75
2023/06/03 06:47:27;;;;;;;;;13.75;12.00;;;;;18.74;80.22;101493.22;5060025;28;46793;-76
2023/06/03 06:49:55;;;;;;;;;12.00;10.00;;;;;18.77;80.36;101493.22;5061867;28;45753;-80
2023/06/03 06:52:24;;;;;;;;;19.25;14.25;;;;;18.80;79.98;101491.41;5065472;28;45442;-77
2023/06/03 06:54:53;;;;;;;;;16.00;11.75;;;;;18.82;80.13;101494.03;5060719;28;45817;-79
2023/06/03 06:57:20;;;;;;;;;12.00;10.00;;;;;18.85;79.78;101491.31;5063734;28;45583;-78
2023/06/03 06:59:45;;;;;;;;;16.75;14.50;;;;;18.89;79.64;101500.19;5061262;28;45520;-80
2023/06/03 07:02:11;;;;;;;;;15.75;12.00;;;;;18.92;79.96;101503.72;5056793;28;46271;-77
2023/06/03 07:04:36;;;;;;;;;16.50;13.00;;;;;18.94;79.75;101499.22;5058925;28;63339;-77
2023/06/03 07:07:01;;;;;;;;;18.25;13.50;;;;;18.95;80.03;101498.31;5059444;28;58326;-78
2023/06/03 07:09:27;;;;;;;;;15.00;13.00;;;;;18.97;79.86;101506.34;5070415;27;46013;-79
2023/06/03 07:11:52;;;;;;;;;11.67;11.00;;;;;18.99;79.48;101499.16;5049321;28;47034;-77
2023/06/03 07:14:18;;;;;;;;;17.67;13.67;;;;;19.01;79.55;101500.03;5049826;28;46778;-77
2023/06/03 07:16:43;;;;;;;;;14.67;10.00;;;;;19.02;79.25;101499.16;5049008;28;45504;-80
2023/06/03 07:19:09;;;;;;;;;19.00;12.50;;;;;19.06;79.13;101499.06;5047718;28;45695;-77
2023/06/03 07:21:34;;;;;;;;;17.00;11.25;;;;;19.10;79.26;101505.25;5048813;28;45412;-78
2023/06/03 07:24:00;;;;;;;;;14.33;13.00;;;;;19.12;79.41;101498.09;5044944;28;47872;-76
2023/06/03 07:26:31;;;;;;;;;13.33;11.33;;;;;19.17;79.42;101498.03;5051600;28;59090;-76
2023/06/03 07:28:57;;;;;;;;;14.00;12.00;;;;;19.20;78.80;101500.69;5052217;28;45533;-76
2023/06/03 07:31:23;;;;;;;;;18.00;12.00;;;;;19.24;79.00;101497.06;5049974;28;47202;-76
2023/06/03 07:33:51;;;;;;;;;14.67;11.67;;;;;19.26;79.31;101501.47;5047216;28;47582;-76
2023/06/03 07:36:18;;;;;;;;;11.33;8.67;;;;;19.30;79.21;101489.81;5051109;28;45530;-75
2023/06/03 07:38:59;;;;;;;;;9.33;9.33;;;;;19.36;79.41;101488.84;5046950;28;46596;-76
2023/06/03 07:41:45;;;;;;;;;15.67;11.67;;;;;19.44;79.49;101499.41;5049176;28;45852;-75
2023/06/03 07:44:15;;;;;;;;;16.00;10.00;;;;;19.48;79.25;101493.13;5049536;28;47652;-75
2023/06/03 07:46:45;;;;;;;;;12.67;11.00;;;;;19.50;79.52;101494.88;5051042;28;45432;-76
2023/06/03 07:49:15;;;;;;;;;13.33;12.67;;;;;19.56;78.98;101504.63;5053482;28;45420;-75
2023/06/03 07:51:44;;;;;;;;;15.33;11.67;;;;;19.58;78.71;101502.78;5048678;28;45705;-73
2023/06/03 07:54:10;;;;;;;;;13.33;11.00;;;;;19.59;79.37;101499.22;5056117;28;46852;-74
2023/06/03 07:56:35;;;;;;;;;13.00;10.33;;;;;19.61;79.07;101500.09;5058299;27;46045;-75
2023/06/03 07:59:03;;;;;;;;;12.67;10.67;;;;;19.64;78.76;101492.00;5052959;28;45453;-76
2023/06/03 08:01:28;;;;;;;;;11.33;10.33;;;;;19.68;78.86;101491.06;5049841;27;45367;-77
2023/06/03 08:03:54;;;;;;;;;8.33;8.33;;;;;19.74;79.53;101493.63;5051846;28;53556;-75
2023/06/03 08:06:23;;;;;;;;;14.00;11.00;;;;;19.80;79.44;101488.16;5054525;27;45464;-81
2023/06/03 08:08:49;;;;;;;;;12.67;9.33;;;;;19.84;78.83;101492.56;5053218;28;45518;-84
2023/06/03 08:11:14;;;;;;;;;12.67;8.00;;;;;19.88;78.55;101486.25;5050293;28;62775;-81
2023/06/03 08:13:40;;;;;;;;;12.00;11.00;;;;;19.94;77.73;101487.06;5049314;28;45926;-81
2023/06/03 08:16:05;;;;;;;;;12.33;9.33;;;;;19.95;77.86;101495.06;5121552;22;46175;-77
2023/06/03 08:18:54;;;;;;;;;12.33;10.00;;;;;20.00;78.38;101484.25;5013767;28;62476;-78
2023/06/03 08:21:26;;;;;;;;;11.33;8.00;;;;;20.03;77.70;101486.91;5012291;28;45447;-78
2023/06/03 08:23:51;;;;;;;;;10.67;8.67;;;;;20.05;77.23;101482.41;5006540;28;46273;-78
2023/06/03 08:26:16;;;;;;;;;8.00;8.00;;;;;20.05;78.21;101482.41;5009021;28;46618;-78
2023/06/03 08:28:43;;;;;;;;;11.67;9.00;;;;;20.08;77.34;101482.31;5007285;28;45669;-78
2023/06/03 08:31:09;;;;;;;;;13.00;7.00;;;;;20.12;77.52;101479.56;5014948;28;45552;-78
2023/06/03 08:33:34;;;;;;;;;10.67;10.33;;;;;20.14;77.66;101471.50;5014093;28;46498;-77
2023/06/03 08:36:00;;;;;;;;;8.67;8.33;;;;;20.18;77.68;101473.19;5012313;28;45460;-78
2023/06/03 08:38:25;;;;;;;;;14.33;8.67;;;;;20.24;77.57;101466.84;5009003;28;45901;-77
2023/06/03 08:40:51;;;;;;;;;12.67;10.00;;;;;20.29;77.14;101464.94;5013945;28;45608;-78
2023/06/03 08:43:17;;;;;;;;;9.00;7.33;;;;;20.33;76.92;101472.91;5015254;28;45479;-77
2023/06/03 08:45:55;;;;;;;;;12.00;9.67;;;;;20.37;76.91;101480.00;5014089;28;45665;-78
2023/06/03 08:48:47;;;;;;;;;9.00;6.67;;;;;20.42;76.50;101474.53;5014868;28;45456;-77
2023/06/03 08:51:14;;;;;;;;;8.33;7.33;;;;;20.49;76.17;101478.03;5014269;28;45694;-77
2023/06/03 08:53:52;;;;;;;;;9.33;9.00;;;;;20.58;76.54;101472.47;5011628;28;47652;-79
2023/06/03 08:56:19;;;;;;;;;13.33;9.33;;;;;20.66;76.75;101474.06;5004279;28;45679;-77
2023/06/03 08:58:52;;;;;;;;;9.00;9.00;;;;;20.76;76.19;101476.56;5015681;28;45856;-78
2023/06/03 09:01:19;;;;;;;;;8.00;7.00;;;;;20.83;75.31;101471.06;5011716;28;45639;-78
2023/06/03 09:03:45;;;;;;;;;9.67;7.00;;;;;20.89;75.34;101465.56;5004631;28;46752;-78
2023/06/03 09:06:12;;;;;;;;;10.67;8.00;;;;;20.95;75.41;101467.22;5013986;28;45819;-78
2023/06/03 09:08:38;;;;;;;;;7.33;7.33;;;;;20.98;75.30;101460.88;5014512;28;45544;-78
2023/06/03 09:11:05;;;;;;;;;7.33;7.33;;;;;21.01;73.77;101460.84;4997699;28;45767;-79
2023/06/03 09:13:34;;;;;;;;;7.67;7.33;;;;;21.04;73.78;101458.06;5012673;28;47563;-78
2023/06/03 09:15:59;;;;;;;;;6.67;6.67;;;;;21.08;74.33;101460.66;5012629;28;45853;-78
2023/06/03 09:18:25;;;;;;;;;7.33;7.00;;;;;21.13;73.08;101465.94;5014045;28;55098;-77
2023/06/03 09:20:50;;;;;;;;;8.67;6.00;;;;;21.18;72.68;101454.16;5013437;28;45855;-78
2023/06/03 09:23:16;;;;;;;;;6.00;5.67;;;;;21.26;73.12;101456.69;5012494;28;46602;-78
2023/06/03 09:25:43;;;;;;;;;7.33;6.00;;;;;21.31;72.90;101445.88;5013903;28;45456;-78
2023/06/03 09:28:10;;;;;;;;;4.33;4.33;;;;;21.39;73.04;101450.13;5012951;28;45516;-78
2023/06/03 09:30:35;;;;;;;;;10.33;7.67;;;;;21.45;72.21;101449.09;5010068;28;46627;-78
2023/06/03 09:33:01;;;;;;;;;5.00;5.00;;;;;21.53;71.71;101462.34;5017780;28;66515;-79
2023/06/03 09:35:26;;;;;;;;;5.67;5.67;;;;;21.57;72.07;101454.19;5011911;28;45429;-78
2023/06/03 09:38:04;;;;;;;;;9.67;7.00;;;;;21.63;71.45;101456.72;5014258;28;45448;-78
2023/06/03 09:40:30;;;;;;;;;4.67;3.33;;;;;21.72;71.46;101460.97;5012918;28;45451;-79
2023/06/03 09:42:56;;;;;;;;;8.00;8.00;;;;;21.77;70.69;101464.41;5014651;28;47462;-77
2023/06/03 09:45:32;;;;;;;;;8.00;8.00;;;;;21.86;69.75;101464.19;5012746;28;63074;-79
2023/06/03 09:47:58;;;;;;;;;6.00;6.00;;;;;21.90;69.32;101460.50;5013928;28;45495;-78
2023/06/03 09:50:25;;;;;;;;;10.67;6.67;;;;;21.96;68.97;101463.03;5013835;28;45559;-79
2023/06/03 09:52:50;;;;;;;;;4.67;4.33;;;;;22.04;68.93;101464.63;5015298;28;47523;-78
2023/06/03 09:55:17;;;;;;;;;7.00;7.00;;;;;22.09;67.81;101462.69;5013974;28;45336;-79
2023/06/03 09:58:02;;;;;;;;;9.00;4.33;;;;;22.17;68.12;101466.13;5013397;28;45508;-79
2023/06/03 10:00:30;;;;;;;;;5.00;5.00;;;;;22.25;68.31;101471.28;5009507;28;45479;-79
2023/06/03 10:03:08;;;;;;;;;5.33;4.67;;;;;22.31;68.82;101460.34;5015831;28;46530;-79
2023/06/03 10:05:34;;;;;;;;;10.00;8.00;;;;;22.38;68.63;101465.53;5013354;28;45437;-81
2023/06/03 10:08:01;;;;;;;;;8.00;7.00;;;;;22.46;67.25;101457.22;5013634;28;46160;-78
2023/06/03 10:10:27;;;;;;;;;5.33;5.33;;;;;22.52;67.19;101461.56;5012512;28;45809;-78
2023/06/03 10:12:52;;;;;;;;;8.00;6.33;;;;;22.58;66.65;101458.69;5013418;28;45481;-77
2023/06/03 10:15:38;;;;;;;;;6.00;5.67;;;;;22.62;66.43;101454.97;5013248;28;45444;-78
2023/06/03 10:18:05;;;;;;;;;8.00;8.00;;;;;22.66;66.63;101456.66;5012045;28;45588;-78
2023/06/03 10:20:35;;;;;;;;;10.00;7.00;;;;;22.72;66.99;101451.09;5012673;28;45687;-78
2023/06/03 10:23:02;;;;;;;;;6.67;6.67;;;;;22.78;66.42;101450.91;5007960;28;47692;-78
2023/06/03 10:25:32;;;;;;;;;7.67;7.67;;;;;22.83;67.36;101465.13;5011896;28;46266;-78
2023/06/03 10:27:59;;;;;;;;;12.00;8.00;;;;;22.90;67.22;101453.25;5010603;28;45442;-79
2023/06/03 10:30:26;;;;;;;;;6.67;6.00;;;;;22.95;66.82;101448.63;5011913;28;45380;-80
2023/06/03 10:32:52;;;;;;;;;10.00;7.67;;;;;22.99;66.23;101447.59;5013840;28;45473;-79
2023/06/03 10:35:19;;;;;;;;;10.33;10.33;;;;;23.05;66.01;101438.44;5012644;28;45521;-79
2023/06/03 10:37:46;;;;;;;;;6.00;6.00;;;;;23.12;64.83;101439.16;5011067;28;45563;-78
2023/06/03 10:40:13;;;;;;;;;10.67;8.00;;;;;23.16;64.73;101443.50;5010907;28;45575;-78
2023/06/03 10:42:38;;;;;;;;;6.67;6.67;;;;;23.18;64.50;101434.44;5017421;28;45832;-78
2023/06/03 10:45:05;;;;;;;;;10.00;7.33;;;;;23.23;63.74;101423.53;5013228;28;45726;-79
2023/06/03 10:47:31;;;;;;;;;9.33;7.00;;;;;23.27;63.79;101438.66;5012989;28;45476;-79
2023/06/03 10:50:02;;;;;;;;;7.33;7.33;;;;;23.33;63.02;101438.47;5012884;28;45638;-79
2023/06/03 10:52:52;;;;;;;;;7.00;6.67;;;;;23.42;63.04;101442.66;5013740;28;48897;-78
2023/06/03 10:55:34;;;;;;;;;7.00;5.33;;;;;23.49;61.72;101446.94;5011496;28;46319;-78
2023/06/03 10:58:03;;;;;;;;;8.33;6.33;;;;;23.55;62.87;101437.78;5012596;28;45440;-80
2023/06/03 11:00:51;;;;;;;;;8.00;7.00;;;;;23.60;61.85;101447.47;5012420;28;45547;-79
2023/06/03 11:03:17;;;;;;;;;7.00;7.00;;;;;23.65;61.56;101436.53;5010826;28;47546;-79
2023/06/03 11:05:45;;;;;;;;;41.75;31.25;;;;;23.71;60.90;101442.63;5012828;28;45394;-79
2023/06/03 11:08:11;;;;;;;;;253.25;189.50;;;;;23.76;59.78;101432.56;5012429;28;45516;-79
2023/06/03 11:10:36;;;;;;;;;48.00;37.50;;;;;23.85;59.35;101450.22;5012116;28;45526;-78
2023/06/03 11:13:02;;;;;;;;;22.00;19.33;;;;;23.89;59.34;101430.31;5011507;28;47405;-79
2023/06/03 11:16:02;;;;;;;;;10.00;10.00;;;;;23.95;59.63;101446.28;5012616;28;45365;-79